Detall de PIREP

Printer-friendly versionPDF version

[2014/10/25 14:52:00]
Flight IATA:CT1056
Pilot Number:012
Company ICAO:CAT
Aircraft Type:F50/A
PAX:50
Aircraft Registration:PAOB
Departing Airport: LEIB
Destination Airport: LEPA
Alternate Airport:LEIB
Online: VATSIM
Route:LAMPA
Flight Level:F080
No Slew and time accel
No pause
Crash detect
Detect pilot in Cockpit between each 30 and 45 minutes
14:52 Zero fuel Weight: 37318 Lbs, Fuel Weight: 4089 Lbs
14:52 VATSIM:LEIB 251430Z 21003KT CAVOK 26/15 Q1019 NOSIG
14:52 VATSIM:LEPA 251430Z 23010KT 200V260 CAVOK 27/12 Q1019 NOSIG
14:52 MEDITERRANEAN ODYSSEY
15:02 Parking Brakes off
15:07 Take-off
15:07 Take off Weight: 41284 Lbs
15:07 Wind: 209º @ 003 Knots Heading: 242º
15:07 POS N38º 52´ 23´´ E001º 22´ 23´´
15:07 Gear Up: 121 Knots
15:07 Flaps:1 at 121 Knots
15:07 Flaps:0 at 141 Knots
15:12 TOC
15:12 Fuel Weight: 3759 Lb
15:22 Wind:248º@006 Knots Heading: 043º Ground Speed: 251 Knots Altitude 8166 ft
15:31 TOD
15:31 Fuel Weight: 3141 Lb
15:37 Wind:209º@009 Knots Heading: 042º Ground Speed: 204 Knots Altitude 2965 ft
15:43 Flaps:1 at 196 Knots
15:43 Flaps:2 at 181 Knots
15:43 Gear Down: 175 Knots
15:43 Flaps:3 at 161 Knots
15:44 Flaps:4 at 135 Knots
15:44 Flaps:5 at 126 Knots
15:44 Flaps:6 at 124 Knots
15:45 TouchDown:Rate -221 ft/min Speed: 97 Knots
15:46 Flaps:4 at 28 Knots
15:46 Flaps:0 at 28 Knots
15:46 VATSIM:LEPA 251530Z 21008KT 180V260 CAVOK 26/11 Q1019 NOSIG
15:46 Land
15:46 Wind:209º@008 Knots
15:46 Heading: 236º
15:46 Flight Duration: 00:39
15:46 Landing Weight: 40190 Lbs
15:46 POS N39º 33´ 00´´ E002º 45´ 01´´
15:52 Parking brakes on
15:52 Block to Block Duration: 00:50
15:52 Final Fuel: 2791 Lbls
15:52 Spent Fuel: 1298 Lbls
15:52 Flight Length: 142 NM
15:52 TOD Land Length: 49 NM

Exportar CSV

Powered by Drupal - Modified by Danger4k